Time;durP1;ratioP1;P1;durP2;ratioP2;P2;SDS_P1;SDS_P2;PMS_P1;PMS_P2;Temp;Humidity;BMP_temperature;BMP_pressure;BME280_temperature;BME280_humidity;BME280_pressure;Samples;Min_cycle;Max_cycle;Signal;HPM_P1;HPM_P2
2022/11/06 00:01:10;;;;;;;2.70;1.38;;;20.00;44.70;19.10;101109.00;;;;5052524;28;20500;-71
2022/11/06 00:03:35;;;;;;;3.90;1.77;;;20.00;44.80;19.10;101105.00;;;;5052383;28;20493;-71
2022/11/06 00:08:53;;;;;;;3.55;1.40;;;20.00;44.70;19.10;101109.00;;;;5070128;28;20083;-71
2022/11/06 00:11:19;;;;;;;3.03;1.40;;;20.00;44.70;19.10;101105.00;;;;5070413;28;20033;-71
2022/11/06 00:13:46;;;;;;;3.30;1.70;;;20.00;44.70;19.10;101094.00;;;;5070286;28;20028;-71
2022/11/06 00:16:12;;;;;;;2.72;1.58;;;19.90;44.50;19.10;101100.00;;;;5070015;28;20059;-71
2022/11/06 00:18:38;;;;;;;1.90;1.60;;;20.00;44.60;19.00;101103.00;;;;5070751;28;20370;-71
2022/11/06 00:21:09;;;;;;;3.78;1.73;;;20.00;44.70;19.00;101104.00;;;;5073193;28;20033;-71
2022/11/06 00:23:35;;;;;;;2.75;1.30;;;19.90;44.60;19.00;101106.00;;;;5056627;28;20403;-71
2022/11/06 00:26:08;;;;;;;3.10;1.57;;;19.90;44.60;19.00;101107.00;;;;5035434;28;20047;-71
2022/11/06 00:28:34;;;;;;;3.55;1.60;;;19.90;44.50;19.00;101102.00;;;;5052532;28;20032;-71
2022/11/06 00:31:02;;;;;;;1.90;1.50;;;19.90;44.40;19.00;101099.00;;;;5069320;28;20102;-71
2022/11/06 00:33:28;;;;;;;2.97;1.40;;;19.90;44.50;19.00;101106.00;;;;5070879;28;20020;-72
2022/11/06 00:35:54;;;;;;;4.20;1.97;;;19.90;44.50;19.00;101104.00;;;;5068816;28;20024;-71
2022/11/06 00:38:20;;;;;;;3.73;1.80;;;20.00;44.60;19.00;101101.00;;;;5070110;28;20108;-71
2022/11/06 00:40:46;;;;;;;3.38;1.60;;;19.90;44.50;19.00;101099.00;;;;5068048;28;20025;-71
2022/11/06 00:43:11;;;;;;;2.27;1.50;;;20.00;44.50;19.00;101102.00;;;;5051972;28;20381;-71
2022/11/06 00:45:37;;;;;;;2.77;1.67;;;19.90;44.40;19.00;101107.00;;;;5065889;28;20119;-71
2022/11/06 00:48:03;;;;;;;3.50;1.33;;;19.90;44.40;19.00;101103.00;;;;5070340;28;20514;-71
2022/11/06 00:50:29;;;;;;;1.55;1.40;;;19.90;44.60;19.00;101101.00;;;;5068766;28;20033;-71
2022/11/06 00:52:55;;;;;;;2.83;1.40;;;19.90;44.60;19.00;101095.00;;;;5070066;28;20385;-71
2022/11/06 00:55:20;;;;;;;2.60;1.50;;;19.90;44.40;19.00;101101.00;;;;5051743;28;20098;-71
2022/11/06 00:57:46;;;;;;;2.97;1.50;;;19.90;44.40;19.00;101092.00;;;;5070639;28;20099;-71
2022/11/06 01:00:12;;;;;;;2.23;1.47;;;19.90;44.30;18.90;101101.00;;;;5068968;28;20024;-71
2022/11/06 01:02:38;;;;;;;2.22;1.27;;;19.90;44.50;18.90;101096.00;;;;5053156;28;20020;-71
2022/11/06 01:05:04;;;;;;;2.37;1.37;;;19.90;44.40;18.90;101092.00;;;;5069097;28;20061;-71
2022/11/06 01:07:30;;;;;;;4.00;1.80;;;19.90;44.50;18.90;101086.00;;;;5070749;28;20047;-71
2022/11/06 01:09:56;;;;;;;3.70;1.50;;;19.90;44.50;18.90;101079.00;;;;5068526;28;20041;-71
2022/11/06 01:12:22;;;;;;;2.53;1.70;;;19.90;44.40;19.00;101092.00;;;;5070374;28;20103;-71
2022/11/06 01:14:47;;;;;;;4.63;1.93;;;19.90;44.50;19.00;101080.00;;;;5069000;28;20331;-71
2022/11/06 01:17:13;;;;;;;1.90;1.40;;;19.90;44.60;18.90;101080.00;;;;5069850;28;20107;-71
2022/11/06 01:19:39;;;;;;;6.10;1.60;;;19.80;44.40;18.90;101075.00;;;;5069646;28;20030;-71
2022/11/06 01:22:05;;;;;;;2.90;1.40;;;19.90;44.60;18.90;101086.00;;;;5051697;28;20040;-71
2022/11/06 01:24:30;;;;;;;2.13;1.40;;;19.80;44.50;19.00;101081.00;;;;5071639;28;20112;-71
2022/11/06 01:26:56;;;;;;;1.80;1.17;;;19.90;44.50;18.90;101088.00;;;;5074412;28;20111;-71
2022/11/06 01:29:22;;;;;;;3.67;1.47;;;19.70;44.40;18.90;101079.00;;;;5073151;28;20352;-71
2022/11/06 01:31:51;;;;;;;2.60;1.70;;;19.80;44.50;19.00;101085.00;;;;5073268;28;20064;-71
2022/11/06 01:34:18;;;;;;;1.63;1.23;;;19.90;44.50;19.00;101086.00;;;;5072679;28;20029;-71
2022/11/06 01:36:45;;;;;;;2.53;1.40;;;19.90;44.60;19.00;101087.00;;;;5061658;28;20029;-71
2022/11/06 01:39:12;;;;;;;2.92;1.63;;;19.80;44.50;19.00;101077.00;;;;5072728;28;20056;-71
2022/11/06 01:41:42;;;;;;;3.90;1.70;;;19.80;44.50;19.00;101075.00;;;;5073126;28;20051;-71
2022/11/06 01:44:32;;;;;;;2.70;1.48;;;19.80;44.40;19.00;101069.00;;;;5068273;28;20021;-71
2022/11/06 01:46:58;;;;;;;1.70;1.30;;;19.70;44.40;19.00;101065.00;;;;5072473;28;20033;-71
2022/11/06 01:49:24;;;;;;;;;;;19.80;44.50;18.90;101060.00;;;;5072854;28;20032;-71
2022/11/06 01:51:59;;;;;;;4.70;1.60;;;19.90;44.60;18.90;101056.00;;;;5041536;28;19932;-71
2022/11/06 01:54:25;;;;;;;3.78;1.80;;;19.80;44.50;18.90;101044.00;;;;5056143;28;20020;-71
2022/11/06 01:56:54;;;;;;;3.42;1.73;;;19.80;44.40;18.90;101041.00;;;;5063428;28;20037;-71
2022/11/06 01:59:22;;;;;;;2.25;1.45;;;19.80;44.40;18.90;101045.00;;;;5054795;28;20016;-71
2022/11/06 02:01:48;;;;;;;2.08;1.30;;;19.80;44.50;18.90;101036.00;;;;5055023;28;20454;-71
2022/11/06 02:04:26;;;;;;;1.43;1.10;;;19.80;44.50;18.90;101045.00;;;;5054867;28;20032;-71
2022/11/06 02:06:51;;;;;;;2.20;1.30;;;19.80;44.50;19.00;101054.00;;;;5054843;28;20282;-71
2022/11/06 02:09:17;;;;;;;2.70;1.50;;;19.80;44.50;19.00;101035.00;;;;5054260;28;20034;-71
2022/11/06 02:11:56;;;;;;;2.55;1.50;;;19.80;44.50;19.00;101031.00;;;;5055025;28;20521;-71
2022/11/06 02:14:41;;;;;;;4.18;1.58;;;19.80;44.50;18.90;101035.00;;;;5053791;28;20028;-71
2022/11/06 02:17:26;;;;;;;3.55;1.40;;;19.90;44.50;19.00;101039.00;;;;5042205;28;20547;-71
2022/11/06 02:20:04;;;;;;;3.47;1.75;;;19.80;44.50;19.00;101032.00;;;;5052202;28;20112;-71
2022/11/06 02:22:59;;;;;;;10.75;1.70;;;19.90;44.50;19.00;101024.00;;;;5056125;28;20452;-71
2022/11/06 02:26:07;;;;;;;2.88;1.50;;;19.80;44.40;19.00;101029.00;;;;5035734;28;20098;-71
2022/11/06 02:28:42;;;;;;;4.72;2.08;;;19.80;44.40;19.00;101023.00;;;;5047138;28;20036;-71
2022/11/06 02:31:14;;;;;;;2.05;1.70;;;19.90;44.50;19.00;101025.00;;;;5055974;28;20028;-71
2022/11/06 02:33:47;;;;;;;2.97;1.65;;;19.90;44.50;19.00;101019.00;;;;5050887;28;20029;-71
2022/11/06 02:36:21;;;;;;;1.85;1.17;;;19.90;44.50;19.00;101016.00;;;;5051334;28;20036;-71
2022/11/06 02:38:54;;;;;;;2.13;1.30;;;19.90;44.50;19.00;101007.00;;;;5054440;28;20035;-71
2022/11/06 02:41:47;;;;;;;2.72;1.20;;;19.90;44.50;19.00;101022.00;;;;5053690;28;20451;-71
2022/11/06 02:44:17;;;;;;;2.88;1.35;;;19.80;44.40;19.00;101012.00;;;;5035804;28;20058;-71
2022/11/06 02:46:50;;;;;;;2.33;1.30;;;19.90;44.50;19.00;101024.00;;;;5054124;28;20043;-72
2022/11/06 02:49:25;;;;;;;2.42;1.35;;;19.90;44.50;19.00;101023.00;;;;5054525;28;20040;-71
2022/11/06 02:51:55;;;;;;;2.40;1.30;;;19.90;44.50;19.00;101015.00;;;;5054359;28;20040;-71
2022/11/06 02:54:21;;;;;;;1.30;0.95;;;19.90;44.40;19.00;101010.00;;;;5056637;28;20510;-71
2022/11/06 02:56:49;;;;;;;3.03;1.48;;;19.80;44.40;19.00;101014.00;;;;5054236;28;20047;-71
2022/11/06 02:59:37;;;;;;;2.17;1.30;;;19.90;44.50;19.00;101021.00;;;;5053592;28;20387;-72
2022/11/06 03:02:05;;;;;;;2.45;1.33;;;19.90;44.40;19.00;101011.00;;;;5056876;28;20117;-71
2022/11/06 03:05:01;;;;;;;2.63;1.40;;;19.80;44.40;19.00;101009.00;;;;5053512;28;20495;-71
2022/11/06 03:07:36;;;;;;;2.67;1.17;;;19.80;44.40;18.90;101005.00;;;;5052294;28;20048;-71
2022/11/06 03:10:02;;;;;;;1.90;1.10;;;19.90;44.40;18.90;101000.00;;;;5070803;28;20532;-71
2022/11/06 03:12:31;;;;;;;2.25;1.40;;;19.80;44.40;19.00;100995.00;;;;5036463;28;20078;-71
2022/11/06 03:15:38;;;;;;;2.22;1.10;;;19.80;44.40;19.00;100996.00;;;;5044678;28;20460;-71
2022/11/06 03:18:19;;;;;;;2.03;1.30;;;19.80;44.40;18.90;100993.00;;;;5054058;28;20028;-71
2022/11/06 03:21:00;;;;;;;1.75;1.25;;;19.90;44.40;19.00;100994.00;;;;5048359;28;20485;-71
2022/11/06 03:23:46;;;;;;;2.70;1.13;;;19.80;44.40;19.00;100985.00;;;;5053550;28;20524;-71
2022/11/06 03:26:18;;;;;;;2.15;1.27;;;19.80;44.40;18.90;100984.00;;;;5053860;28;20115;-71
2022/11/06 03:29:34;;;;;;;3.25;1.15;;;19.80;44.40;18.90;100989.00;;;;5053277;28;20113;-71
2022/11/06 03:32:22;;;;;;;1.67;1.20;;;19.80;44.40;18.90;100997.00;;;;5052135;28;20095;-71
2022/11/06 03:34:52;;;;;;;2.08;1.20;;;19.80;44.40;18.90;100989.00;;;;5052097;28;20103;-71
2022/11/06 03:37:24;;;;;;;3.58;1.52;;;19.80;44.40;19.00;100995.00;;;;5051785;28;20060;-71
2022/11/06 03:39:52;;;;;;;3.08;1.30;;;19.80;44.40;18.90;100994.00;;;;5048333;28;20024;-71
2022/11/06 03:42:26;;;;;;;2.17;1.30;;;19.80;44.40;18.90;100994.00;;;;5052198;28;20427;-71
2022/11/06 03:44:55;;;;;;;4.90;2.22;;;19.80;44.40;19.00;100993.00;;;;5048560;28;20029;-71
2022/11/06 03:47:31;;;;;;;2.92;1.25;;;19.90;44.50;19.00;100979.00;;;;5052570;28;20494;-71
2022/11/06 03:50:25;;;;;;;1.33;1.00;;;19.80;44.30;18.90;100985.00;;;;5036214;28;20035;-71
2022/11/06 03:53:09;;;;;;;1.67;1.00;;;19.80;44.40;19.00;100980.00;;;;5036645;28;20462;-71
2022/11/06 03:55:41;;;;;;;2.00;1.23;;;19.80;44.30;18.90;100972.00;;;;5052611;28;20363;-71
2022/11/06 03:58:10;;;;;;;2.65;1.70;;;19.90;44.50;18.90;100967.00;;;;5029810;28;20056;-71
2022/11/06 04:00:36;;;;;;;3.50;1.40;;;19.90;44.50;18.90;100970.00;;;;5054929;28;20522;-71
2022/11/06 04:03:06;;;;;;;1.30;1.13;;;19.80;44.40;18.90;100976.00;;;;5059838;28;20028;-71
2022/11/06 04:05:40;;;;;;;1.30;1.10;;;19.80;44.40;18.90;100979.00;;;;5045470;28;20026;-71
2022/11/06 04:13:56;;;;;;;2.83;1.02;;;19.90;44.40;18.90;100983.00;;;;5058090;28;20043;-71
2022/11/06 04:16:29;;;;;;;1.40;0.90;;;19.80;44.40;18.90;100987.00;;;;5051944;28;20028;-71
2022/11/06 04:18:54;;;;;;;1.85;1.23;;;19.80;44.40;18.90;100981.00;;;;5059390;28;20086;-71
2022/11/06 04:22:01;;;;;;;1.80;1.20;;;19.80;44.40;18.90;100981.00;;;;5065847;28;20465;-71
2022/11/06 04:27:44;;;;;;;3.00;1.10;;;19.80;44.40;18.90;100985.00;;;;5054195;28;20047;-71
2022/11/06 04:30:13;;;;;;;2.33;0.80;;;19.80;44.40;18.90;100987.00;;;;5051709;28;20039;-71
2022/11/06 04:33:01;;;;;;;2.03;1.10;;;19.80;44.40;18.90;100991.00;;;;5053269;28;20023;-71
2022/11/06 04:36:00;;;;;;;8.60;1.33;;;19.70;44.40;18.90;100987.00;;;;5048199;28;20036;-71
2022/11/06 04:38:56;;;;;;;1.90;1.00;;;19.70;44.40;18.90;100992.00;;;;5045559;28;20493;-71
2022/11/06 04:42:04;;;;;;;2.20;1.17;;;19.70;44.40;18.80;100986.00;;;;5065557;28;20048;-71
2022/11/06 04:44:34;;;;;;;3.60;1.08;;;19.70;44.40;18.90;100972.00;;;;5043234;28;20382;-72
2022/11/06 04:47:04;;;;;;;2.58;1.30;;;19.80;44.50;18.80;100979.00;;;;5066551;28;20068;-71
2022/11/06 04:49:31;;;;;;;2.30;1.50;;;19.70;44.40;18.90;100966.00;;;;5048274;28;20029;-71
2022/11/06 04:51:57;;;;;;;2.50;1.50;;;19.70;44.40;18.90;100973.00;;;;5042635;28;20025;-71
2022/11/06 04:54:23;;;;;;;1.23;0.90;;;19.70;44.50;18.90;100964.00;;;;5052071;28;20091;-71
2022/11/06 04:56:48;;;;;;;2.43;1.10;;;19.70;44.40;18.90;100967.00;;;;5079283;28;20036;-71
2022/11/06 04:59:16;;;;;;;1.47;0.87;;;19.70;44.50;18.90;100967.00;;;;5074275;28;20036;-71
2022/11/06 05:01:42;;;;;;;2.55;0.95;;;19.70;44.50;18.90;100961.00;;;;5077000;28;20013;-71
2022/11/06 05:04:08;;;;;;;2.17;0.90;;;19.70;44.50;18.90;100953.00;;;;5056143;28;20409;-71
2022/11/06 05:06:34;;;;;;;1.58;1.00;;;19.70;44.40;18.90;100953.00;;;;5058436;28;20827;-71
2022/11/06 05:09:00;;;;;;;1.97;1.10;;;19.70;44.50;18.90;100959.00;;;;5075925;28;20258;-71
2022/11/06 05:11:25;;;;;;;2.67;1.02;;;19.70;44.40;18.90;100954.00;;;;5075179;28;20032;-71
2022/11/06 05:13:51;;;;;;;2.30;1.00;;;19.70;44.50;18.90;100943.00;;;;5074946;28;20402;-71
2022/11/06 05:16:17;;;;;;;1.97;0.77;;;19.70;44.40;18.90;100952.00;;;;5076001;28;20116;-71
2022/11/06 05:18:43;;;;;;;3.17;0.97;;;19.70;44.50;18.90;100950.00;;;;5076557;28;20099;-71
2022/11/06 05:23:53;;;;;;;2.55;1.10;;;19.70;44.50;18.90;100932.00;;;;5076033;28;20055;-71
2022/11/06 05:26:19;;;;;;;3.13;1.20;;;19.80;44.50;18.90;100928.00;;;;5058440;28;20036;-71
2022/11/06 05:28:44;;;;;;;3.43;1.00;;;19.80;44.50;18.90;100937.00;;;;5076401;28;20108;-71
2022/11/06 05:31:10;;;;;;;1.83;0.93;;;19.70;44.50;18.90;100934.00;;;;5075531;28;20123;-71
2022/11/06 05:33:36;;;;;;;1.60;1.00;;;19.70;44.40;18.90;100920.00;;;;5077233;28;20048;-71
2022/11/06 05:36:03;;;;;;;3.58;1.38;;;19.80;44.50;18.90;100929.00;;;;5056452;28;21073;-71
2022/11/06 05:38:30;;;;;;;3.90;1.10;;;19.80;44.40;18.90;100932.00;;;;5058745;28;20036;-71
2022/11/06 05:40:55;;;;;;;2.22;1.05;;;19.70;44.40;18.90;100926.00;;;;5075501;28;20025;-71
2022/11/06 05:43:21;;;;;;;2.03;0.83;;;19.80;44.40;18.90;100924.00;;;;5077153;28;20035;-71
2022/11/06 05:45:47;;;;;;;2.30;1.00;;;19.80;44.40;18.90;100915.00;;;;5056857;28;20044;-71
2022/11/06 05:48:14;;;;;;;3.00;1.20;;;19.70;44.50;18.90;100917.00;;;;5058469;28;20046;-71
2022/11/06 05:50:39;;;;;;;2.30;0.90;;;19.80;44.40;18.90;100916.00;;;;5075143;28;20028;-71
2022/11/06 05:53:05;;;;;;;2.50;1.10;;;19.80;44.40;18.90;100912.00;;;;5076424;28;20119;-71
2022/11/06 05:55:31;;;;;;;1.77;0.80;;;19.80;44.40;18.90;100908.00;;;;5075929;28;20115;-71
2022/11/06 05:57:57;;;;;;;1.33;0.90;;;19.80;44.40;18.90;100904.00;;;;5077090;28;20052;-71
2022/11/06 06:00:23;;;;;;;2.90;1.42;;;19.80;44.40;18.90;100892.00;;;;5074176;28;20028;-71
2022/11/06 06:02:49;;;;;;;2.60;0.90;;;19.80;44.40;18.90;100903.00;;;;5073558;28;20382;-71
2022/11/06 06:05:15;;;;;;;2.93;1.00;;;19.80;44.40;18.90;100909.00;;;;5075955;28;20317;-71
2022/11/06 06:07:40;;;;;;;1.87;1.10;;;19.80;44.40;18.90;100899.00;;;;5082564;28;20025;-71
2022/11/06 06:10:07;;;;;;;1.97;1.10;;;19.70;44.20;18.90;100907.00;;;;5071742;28;20100;-71
2022/11/06 06:12:33;;;;;;;2.60;1.05;;;19.80;44.30;18.90;100907.00;;;;5073994;28;20465;-71
2022/11/06 06:14:58;;;;;;;2.10;0.80;;;19.80;44.30;18.90;100907.00;;;;5072255;28;20051;-71
2022/11/06 06:17:24;;;;;;;2.73;0.80;;;19.80;44.30;18.90;100910.00;;;;5072867;28;20569;-71
2022/11/06 06:19:50;;;;;;;2.60;0.90;;;19.80;44.30;18.90;100916.00;;;;5071692;28;20062;-71
2022/11/06 06:22:16;;;;;;;2.90;0.70;;;19.80;44.30;18.90;100911.00;;;;5073278;28;20459;-71
2022/11/06 06:24:42;;;;;;;1.17;0.90;;;19.80;44.40;18.90;100917.00;;;;5053122;28;20020;-71
2022/11/06 06:27:07;;;;;;;1.93;1.00;;;19.80;44.30;18.90;100906.00;;;;5073232;28;20126;-71
2022/11/06 06:29:33;;;;;;;2.20;0.90;;;19.80;44.40;18.90;100913.00;;;;5071924;28;20032;-71
2022/11/06 06:31:59;;;;;;;2.57;0.93;;;19.90;44.40;18.90;100902.00;;;;5072261;28;20120;-71
2022/11/06 06:34:25;;;;;;;1.53;0.97;;;19.80;44.40;18.90;100902.00;;;;5071585;28;20035;-71
2022/11/06 06:36:51;;;;;;;1.17;0.80;;;19.80;44.40;18.90;100901.00;;;;5070587;28;20116;-71
2022/11/06 06:39:20;;;;;;;1.58;0.70;;;19.90;44.40;18.90;100902.00;;;;5054105;28;20110;-71
2022/11/06 06:41:46;;;;;;;4.18;1.00;;;19.80;44.40;18.90;100900.00;;;;5072128;28;20070;-71
2022/11/06 06:44:12;;;;;;;2.08;1.10;;;19.80;44.40;18.90;100897.00;;;;5070486;28;20036;-71
2022/11/06 06:46:38;;;;;;;1.70;0.93;;;19.80;44.40;18.90;100909.00;;;;5072118;28;20074;-71
2022/11/06 06:49:04;;;;;;;1.40;0.70;;;19.90;44.50;18.90;100903.00;;;;5053673;28;20036;-71
2022/11/06 06:51:30;;;;;;;2.97;0.83;;;19.70;44.30;18.90;100905.00;;;;5065430;28;20123;-71
2022/11/06 06:53:55;;;;;;;2.93;0.73;;;19.70;44.30;18.90;100907.00;;;;5067142;28;20062;-71
2022/11/06 06:56:21;;;;;;;2.00;0.73;;;19.80;44.40;18.90;100908.00;;;;5067022;28;20032;-71
2022/11/06 06:58:47;;;;;;;4.30;0.83;;;19.80;44.30;18.90;100916.00;;;;5046276;28;20139;-71
2022/11/06 07:01:13;;;;;;;0.80;0.60;;;19.80;44.40;18.90;100918.00;;;;5042092;28;20056;-71
2022/11/06 07:03:38;;;;;;;2.90;0.80;;;19.80;44.30;18.90;100919.00;;;;5044462;28;20032;-71
2022/11/06 07:06:05;;;;;;;1.70;0.73;;;19.70;44.30;18.90;100910.00;;;;5069328;28;20093;-71
2022/11/06 07:08:30;;;;;;;2.85;1.17;;;19.80;44.30;18.90;100912.00;;;;5068023;28;20037;-71
2022/11/06 07:11:01;;;;;;;1.93;0.73;;;19.80;44.30;18.90;100906.00;;;;5073245;28;20032;-71
2022/11/06 07:13:27;;;;;;;1.45;0.73;;;19.80;44.30;18.90;100911.00;;;;5063710;28;20020;-71
2022/11/06 07:15:53;;;;;;;2.80;0.80;;;19.80;44.30;18.90;100926.00;;;;5065832;28;20465;-71
2022/11/06 07:18:18;;;;;;;3.50;1.10;;;19.80;44.30;18.90;100919.00;;;;5072067;28;20139;-71
2022/11/06 07:20:44;;;;;;;2.20;0.67;;;19.80;44.40;18.90;100914.00;;;;5052757;28;20467;-71
2022/11/06 07:23:10;;;;;;;3.20;1.00;;;19.80;44.30;18.90;100928.00;;;;5074785;28;20151;-71
2022/11/06 07:25:36;;;;;;;3.80;1.03;;;19.80;44.30;18.90;100928.00;;;;5052109;28;20107;-71
2022/11/06 07:28:03;;;;;;;2.13;1.00;;;19.80;44.20;18.90;100929.00;;;;5064291;28;20058;-71
2022/11/06 07:30:28;;;;;;;1.42;0.77;;;19.80;44.30;18.90;100921.00;;;;5066745;28;20791;-71
2022/11/06 07:32:54;;;;;;;2.83;0.80;;;19.80;44.20;18.90;100926.00;;;;5054168;28;20120;-71
2022/11/06 07:35:20;;;;;;;2.10;0.70;;;19.80;44.30;18.90;100924.00;;;;5072217;28;20570;-71
2022/11/06 07:37:46;;;;;;;1.37;0.70;;;19.80;44.30;18.90;100931.00;;;;5075895;28;20103;-71
2022/11/06 07:40:13;;;;;;;2.63;0.90;;;19.80;44.40;18.90;100929.00;;;;5072746;28;20045;-71
2022/11/06 07:42:39;;;;;;;0.88;0.60;;;19.80;44.30;18.90;100920.00;;;;5072348;28;20024;-71
2022/11/06 07:45:06;;;;;;;1.43;0.80;;;19.70;44.30;18.90;100922.00;;;;5072928;28;20074;-71
2022/11/06 07:47:31;;;;;;;;;;;19.80;44.40;18.80;100915.00;;;;5068835;28;20359;-71
2022/11/06 07:49:57;;;;;;;1.80;0.90;;;19.80;44.50;18.80;100921.00;;;;5062517;28;19927;-71
2022/11/06 07:52:23;;;;;;;2.43;0.70;;;19.80;44.30;18.80;100912.00;;;;5066075;28;20390;-71
2022/11/06 07:54:49;;;;;;;3.90;1.00;;;19.80;44.30;18.80;100920.00;;;;5061823;28;20543;-71
2022/11/06 07:57:15;;;;;;;1.67;0.68;;;19.80;44.40;18.80;100928.00;;;;5066440;28;20025;-71
2022/11/06 07:59:41;;;;;;;1.53;0.60;;;19.70;44.40;18.90;100925.00;;;;5064333;28;20416;-71
2022/11/06 08:02:16;;;;;;;1.95;1.02;;;19.70;44.40;18.80;100923.00;;;;5066615;28;20045;-71
2022/11/06 08:04:42;;;;;;;3.63;1.23;;;19.70;44.40;18.90;100914.00;;;;5065687;28;20031;-71
2022/11/06 08:07:08;;;;;;;3.90;0.93;;;19.70;44.40;18.90;100916.00;;;;5063425;28;20537;-71
2022/11/06 08:09:34;;;;;;;2.00;0.82;;;19.80;44.40;18.90;100917.00;;;;5058929;28;20101;-72
2022/11/06 08:12:00;;;;;;;3.17;1.20;;;19.80;44.50;18.90;100909.00;;;;5048614;28;20375;-71
2022/11/06 08:14:25;;;;;;;1.80;0.83;;;19.80;44.30;18.90;100906.00;;;;5063477;28;20104;-71
2022/11/06 08:16:51;;;;;;;2.10;0.83;;;19.80;44.40;18.90;100908.00;;;;5063493;28;20381;-71
2022/11/06 08:19:17;;;;;;;2.37;0.80;;;19.80;44.40;18.90;100906.00;;;;5064235;28;20394;-71
2022/11/06 08:21:43;;;;;;;1.30;0.83;;;19.80;44.40;18.90;100893.00;;;;5062370;28;20108;-71
2022/11/06 08:24:08;;;;;;;2.27;0.97;;;19.70;44.40;18.90;100881.00;;;;5047727;28;20024;-71
2022/11/06 08:26:34;;;;;;;1.67;1.00;;;19.80;44.40;18.90;100889.00;;;;5063691;28;20112;-71
2022/11/06 08:29:00;;;;;;;3.67;1.00;;;19.80;44.50;18.80;100889.00;;;;5063696;28;20558;-71
2022/11/06 08:31:26;;;;;;;4.03;1.07;;;19.80;43.60;18.70;100891.00;;;;5064468;28;20185;-71
2022/11/06 08:33:52;;;;;;;2.93;1.13;;;19.80;43.30;18.70;100873.00;;;;5053205;28;20727;-70
2022/11/06 08:36:18;;;;;;;5.55;1.40;;;19.70;43.10;18.60;100876.00;;;;5062659;28;21543;-71
2022/11/06 08:38:46;;;;;;;5.40;1.27;;;19.70;43.10;18.50;100866.00;;;;5060721;28;20036;-71
2022/11/06 08:41:12;;;;;;;8.57;1.67;;;19.60;43.70;18.50;100859.00;;;;5059736;28;20055;-71
2022/11/06 08:43:38;;;;;;;13.73;1.57;;;19.60;44.00;18.50;100853.00;;;;5062778;28;20036;-71
2022/11/06 08:46:05;;;;;;;11.27;2.00;;;19.50;44.20;18.50;100860.00;;;;5063187;28;20390;-71
2022/11/06 08:48:31;;;;;;;9.40;1.65;;;19.50;44.30;18.50;100859.00;;;;5064176;28;20993;-71
2022/11/06 08:50:57;;;;;;;14.85;2.25;;;19.40;44.40;18.50;100849.00;;;;5066278;28;20036;-71
2022/11/06 08:53:23;;;;;;;3.10;1.20;;;19.40;44.50;18.50;100853.00;;;;5038943;28;20067;-71
2022/11/06 08:55:48;;;;;;;3.40;0.80;;;19.40;44.00;18.50;100843.00;;;;5063014;28;20024;-71
2022/11/06 08:58:14;;;;;;;14.40;1.57;;;19.40;44.20;18.50;100843.00;;;;5062642;28;20119;-71
2022/11/06 09:00:40;;;;;;;10.30;1.60;;;19.40;44.40;18.50;100834.00;;;;5058326;28;20033;-71
2022/11/06 09:03:12;;;;;;;10.97;2.37;;;19.40;44.50;18.50;100831.00;;;;5060011;28;20021;-71
2022/11/06 09:05:41;;;;;;;6.57;1.40;;;19.40;44.60;18.50;100849.00;;;;5063920;28;20494;-71
2022/11/06 09:08:08;;;;;;;18.55;2.13;;;19.40;44.70;18.50;100848.00;;;;5062275;28;20036;-71
2022/11/06 09:10:34;;;;;;;8.13;1.67;;;19.40;44.70;18.50;100834.00;;;;5030955;28;20033;-71
2022/11/06 09:12:59;;;;;;;7.00;1.25;;;19.40;44.70;18.60;100847.00;;;;5064270;28;20040;-71
2022/11/06 09:15:26;;;;;;;7.07;1.50;;;19.40;44.80;18.60;100844.00;;;;5058419;28;20033;-71
2022/11/06 09:17:52;;;;;;;5.97;1.30;;;19.40;44.80;18.60;100831.00;;;;5038067;28;20435;-71
2022/11/06 09:20:19;;;;;;;4.50;1.10;;;19.40;44.70;18.60;100816.00;;;;5061993;28;20086;-72
2022/11/06 09:22:45;;;;;;;7.13;1.38;;;19.40;44.70;18.60;100831.00;;;;5062049;28;20177;-71
2022/11/06 09:25:11;;;;;;;8.00;1.40;;;19.50;44.90;18.60;100836.00;;;;5058610;28;20031;-71
2022/11/06 09:27:51;;;;;;;3.75;1.20;;;19.50;44.90;18.60;100824.00;;;;5065187;28;20033;-71
2022/11/06 09:30:19;;;;;;;7.63;1.15;;;19.50;44.90;18.60;100821.00;;;;5043495;28;20057;-71
2022/11/06 09:32:55;;;;;;;6.07;1.10;;;19.50;44.80;18.60;100830.00;;;;5063655;28;20029;-71
2022/11/06 09:35:22;;;;;;;8.20;1.23;;;19.50;44.90;18.70;100818.00;;;;5032579;28;20075;-71
2022/11/06 09:37:48;;;;;;;;;;;19.50;44.90;18.60;100808.00;;;;5062674;28;20044;-71
2022/11/06 09:40:27;;;;;;;1.38;0.60;;;19.60;44.90;18.70;100810.00;;;;5059235;28;19914;-71
2022/11/06 09:43:17;;;;;;;4.32;0.90;;;19.60;44.70;18.60;100804.00;;;;5044751;28;20116;-86
2022/11/06 09:45:43;;;;;;;8.70;2.40;;;19.60;44.70;18.60;100801.00;;;;5042888;28;20494;-73
2022/11/06 09:48:09;;;;;;;11.93;1.50;;;19.60;44.70;18.70;100806.00;;;;5014130;28;20021;-72
2022/11/06 09:50:39;;;;;;;3.03;0.93;;;19.60;44.70;18.70;100784.00;;;;5061498;28;20327;-74
2022/11/06 09:53:33;;;;;;;6.75;1.40;;;19.60;44.80;18.70;100794.00;;;;5051061;28;20032;-73
2022/11/06 09:56:00;;;;;;;5.32;1.20;;;19.60;44.80;18.70;100778.00;;;;5029030;28;20049;-74
2022/11/06 09:58:36;;;;;;;;;;;19.60;45.60;18.70;100781.00;;;;5036341;28;20373;-72
2022/11/06 10:01:17;;;;;;;4.75;1.17;;;19.60;44.80;18.70;100787.00;;;;5034017;28;19965;-72
2022/11/06 10:03:46;;;;;;;4.38;0.90;;;19.70;44.80;18.70;100792.00;;;;5029540;28;20032;-72
2022/11/06 10:06:12;;;;;;;2.97;1.02;;;19.70;44.80;18.70;100777.00;;;;5049207;28;20060;-72
2022/11/06 10:08:37;;;;;;;1.88;0.68;;;19.60;44.70;18.70;100779.00;;;;5029627;28;20032;-72
2022/11/06 10:11:17;;;;;;;4.03;0.80;;;19.70;44.80;18.70;100774.00;;;;5032718;28;20717;-72
2022/11/06 10:14:07;;;;;;;4.90;1.10;;;19.70;44.80;18.70;100781.00;;;;5046746;28;20031;-71
2022/11/06 10:17:00;;;;;;;6.22;1.05;;;19.60;44.80;18.70;100792.00;;;;5026643;28;20033;-71
2022/11/06 10:19:41;;;;;;;2.00;0.75;;;19.70;44.50;18.60;100770.00;;;;5042484;28;20032;-71
2022/11/06 10:22:07;;;;;;;1.10;0.60;;;19.70;44.30;18.50;100770.00;;;;5035630;28;20048;-71
2022/11/06 10:24:43;;;;;;;17.47;2.37;;;19.60;44.20;18.40;100781.00;;;;5065933;28;20422;-71
2022/11/06 10:27:41;;;;;;;8.10;2.20;;;19.60;44.20;18.30;100775.00;;;;5033299;28;20028;-71
2022/11/06 10:30:17;;;;;;;10.50;1.90;;;19.40;44.20;18.20;100771.00;;;;5050758;28;20122;-71
2022/11/06 10:33:34;;;;;;;9.20;1.43;;;19.40;44.60;18.20;100787.00;;;;5031106;28;20131;-71
2022/11/06 10:36:06;;;;;;;9.80;1.58;;;19.20;44.80;18.20;100778.00;;;;5030666;28;20475;-71
2022/11/06 10:38:34;;;;;;;7.10;1.50;;;19.20;44.90;18.20;100769.00;;;;5052738;28;20051;-71
2022/11/06 10:40:59;;;;;;;13.02;2.10;;;19.20;45.10;18.20;100775.00;;;;5043315;28;20617;-72
2022/11/06 10:43:34;;;;;;;9.53;2.07;;;19.20;45.20;18.30;100768.00;;;;5036544;28;20021;-78
2022/11/06 10:46:35;;;;;;;12.75;1.70;;;19.20;45.40;18.30;100761.00;;;;5047614;28;20036;-75
2022/11/06 10:49:10;;;;;;;11.20;1.77;;;19.10;45.40;18.30;100773.00;;;;5048720;28;20084;-74
2022/11/06 10:52:00;;;;;;;14.73;1.58;;;19.20;45.50;18.40;100761.00;;;;5066054;28;20051;-75
2022/11/06 10:55:16;;;;;;;7.97;1.83;;;19.20;45.50;18.40;100760.00;;;;5060744;28;20424;-81
2022/11/06 10:58:02;;;;;;;5.95;1.00;;;19.20;45.50;18.50;100759.00;;;;5047736;28;20405;-75
2022/11/06 11:00:27;;;;;;;8.35;1.40;;;19.30;45.60;18.50;100749.00;;;;5025816;28;20040;-75
2022/11/06 11:03:05;;;;;;;4.33;1.00;;;19.30;45.50;18.50;100740.00;;;;5064719;28;20078;-76
2022/11/06 11:05:38;;;;;;;6.20;1.15;;;19.30;45.50;18.60;100736.00;;;;5048733;28;20051;-75
2022/11/06 11:08:04;;;;;;;6.57;1.73;;;19.40;45.50;18.60;100733.00;;;;5047566;28;20113;-75
2022/11/06 11:10:35;;;;;;;2.93;1.10;;;19.40;45.50;18.60;100729.00;;;;5025810;28;20111;-79
2022/11/06 11:13:03;;;;;;;5.95;0.98;;;19.50;45.50;18.60;100723.00;;;;5034405;28;20037;-77
2022/11/06 11:15:43;;;;;;;3.38;0.90;;;19.50;45.40;18.70;100708.00;;;;5037952;28;20039;-83
2022/11/06 11:18:12;;;;;;;5.75;1.00;;;19.50;45.40;18.70;100709.00;;;;5030294;28;20841;-73